createdAt,value
2023-04-07T00:00:33.660Z,99.90
2023-04-07T00:03:02.664Z,99.90
2023-04-07T00:05:30.563Z,99.90
2023-04-07T00:07:58.255Z,99.90
2023-04-07T00:10:26.350Z,99.90
2023-04-07T00:12:54.054Z,99.90
2023-04-07T00:15:21.723Z,99.90
2023-04-07T00:17:49.819Z,99.90
2023-04-07T00:20:17.724Z,99.90
2023-04-07T00:22:45.743Z,99.90
2023-04-07T00:25:13.327Z,99.90
2023-04-07T00:27:41.237Z,99.90
2023-04-07T00:30:09.276Z,99.90
2023-04-07T00:32:37.056Z,99.90
2023-04-07T00:35:05.179Z,99.90
2023-04-07T00:37:33.031Z,99.90
2023-04-07T00:40:00.784Z,99.90
2023-04-07T00:42:28.892Z,99.90
2023-04-07T00:44:56.486Z,99.90
2023-04-07T00:47:24.429Z,99.90
2023-04-07T00:49:52.153Z,99.90
2023-04-07T00:52:27.313Z,99.90
2023-04-07T00:54:59.453Z,99.90
2023-04-07T00:57:27.493Z,99.90
2023-04-07T00:59:56.421Z,99.90
2023-04-07T01:02:36.718Z,99.90
2023-04-07T01:05:16.484Z,99.90
2023-04-07T01:08:00.864Z,99.90
2023-04-07T01:11:08.836Z,99.90
2023-04-07T01:13:57.953Z,99.90
2023-04-07T01:16:52.413Z,99.90
2023-04-07T01:19:38.215Z,99.90
2023-04-07T01:22:15.479Z,99.90
2023-04-07T01:25:24.791Z,99.90
2023-04-07T01:28:10.586Z,99.90
2023-04-07T01:30:41.848Z,99.90
2023-04-07T01:33:12.562Z,99.90
2023-04-07T01:35:41.771Z,99.90
2023-04-07T01:38:11.357Z,99.90
2023-04-07T01:40:40.670Z,99.90
2023-04-07T01:43:09.127Z,99.90
2023-04-07T01:45:38.499Z,99.90
2023-04-07T01:48:07.762Z,99.90
2023-04-07T01:50:36.692Z,99.90
2023-04-07T01:53:05.068Z,99.90
2023-04-07T01:55:33.648Z,99.90
2023-04-07T01:58:06.690Z,99.90
2023-04-07T02:00:36.484Z,99.90
2023-04-07T02:03:21.413Z,99.90
2023-04-07T02:05:54.797Z,99.90
2023-04-07T02:08:29.182Z,99.90
2023-04-07T02:10:59.579Z,99.90
2023-04-07T02:13:32.221Z,99.90
2023-04-07T02:16:01.731Z,99.90
2023-04-07T02:18:32.415Z,99.90
2023-04-07T02:21:02.404Z,99.90
2023-04-07T02:23:30.416Z,99.90
2023-04-07T02:25:58.323Z,99.90
2023-04-07T02:28:26.094Z,99.90
2023-04-07T02:30:53.653Z,99.90
2023-04-07T02:33:21.365Z,99.90
2023-04-07T02:35:49.219Z,99.90
2023-04-07T02:38:16.854Z,99.90
2023-04-07T02:40:44.369Z,99.90
2023-04-07T02:43:12.082Z,99.90
2023-04-07T02:45:39.716Z,99.90
2023-04-07T02:48:07.454Z,99.90
2023-04-07T02:50:35.162Z,99.90
2023-04-07T02:53:02.779Z,99.90
2023-04-07T02:55:31.421Z,99.90
2023-04-07T02:57:59.033Z,99.90
2023-04-07T03:00:45.765Z,99.90
2023-04-07T03:03:22.988Z,99.90
2023-04-07T03:06:16.795Z,99.90
2023-04-07T03:08:55.778Z,99.90
2023-04-07T03:11:23.391Z,99.90
2023-04-07T03:13:52.069Z,99.90
2023-04-07T03:16:19.863Z,99.90
2023-04-07T03:19:00.067Z,99.20
2023-04-07T03:21:29.079Z,99.90
2023-04-07T03:23:56.825Z,99.90
2023-04-07T03:26:24.852Z,99.90
2023-04-07T03:28:52.896Z,99.90
2023-04-07T03:31:22.016Z,99.90
2023-04-07T03:33:52.508Z,99.90
2023-04-07T03:36:22.559Z,99.90
2023-04-07T03:38:50.988Z,99.90
2023-04-07T03:41:19.764Z,99.90
2023-04-07T03:43:48.297Z,99.90
2023-04-07T03:46:16.407Z,99.90
2023-04-07T03:48:45.157Z,99.90
2023-04-07T03:51:13.166Z,99.90
2023-04-07T03:53:41.550Z,99.90
2023-04-07T03:56:23.544Z,99.90
2023-04-07T03:58:51.745Z,99.90
2023-04-07T04:01:27.648Z,99.90
2023-04-07T04:03:57.285Z,99.90
2023-04-07T04:06:27.908Z,99.90
2023-04-07T04:09:02.877Z,99.90
2023-04-07T04:11:33.226Z,99.90
2023-04-07T04:14:04.861Z,99.90
2023-04-07T04:16:36.110Z,99.90
2023-04-07T04:19:09.916Z,99.90
2023-04-07T04:21:37.646Z,99.90
2023-04-07T04:24:05.747Z,99.90
2023-04-07T04:26:33.917Z,99.90
2023-04-07T04:29:07.513Z,99.90
2023-04-07T04:31:35.144Z,99.90
2023-04-07T04:34:03.018Z,99.90
2023-04-07T04:36:31.810Z,99.90
2023-04-07T04:39:04.932Z,99.90
2023-04-07T04:41:34.356Z,99.90
2023-04-07T04:44:02.834Z,99.90
2023-04-07T04:46:32.054Z,99.90
2023-04-07T04:49:00.386Z,99.90
2023-04-07T04:51:28.609Z,99.90
2023-04-07T04:54:04.021Z,99.90
2023-04-07T04:56:32.182Z,99.90
2023-04-07T04:59:00.273Z,99.90
2023-04-07T05:01:39.802Z,99.90
2023-04-07T05:04:11.284Z,99.90
2023-04-07T05:06:44.837Z,99.90
2023-04-07T05:09:14.487Z,99.90
2023-04-07T05:11:45.680Z,99.90
2023-04-07T05:14:13.273Z,99.90
2023-04-07T05:16:45.491Z,99.90
2023-04-07T05:19:18.818Z,99.90
2023-04-07T05:21:47.040Z,99.90
2023-04-07T05:24:15.152Z,99.90
2023-04-07T05:26:43.727Z,99.90
2023-04-07T05:29:11.371Z,99.90
2023-04-07T05:31:41.310Z,99.90
2023-04-07T05:34:12.860Z,99.90
2023-04-07T05:36:46.569Z,99.90
2023-04-07T05:39:14.210Z,99.90
2023-04-07T05:41:42.395Z,99.90
2023-04-07T05:44:10.725Z,99.90
2023-04-07T05:46:41.827Z,99.90
2023-04-07T05:49:19.662Z,99.90
2023-04-07T05:51:53.230Z,99.90
2023-04-07T05:54:21.196Z,99.90
2023-04-07T05:56:50.075Z,99.90
2023-04-07T05:59:17.777Z,99.90
2023-04-07T06:01:46.722Z,99.90
2023-04-07T06:04:14.469Z,99.90
2023-04-07T06:06:42.618Z,99.90
2023-04-07T06:09:10.405Z,99.90
2023-04-07T06:11:38.074Z,99.90
2023-04-07T06:14:05.775Z,99.90
2023-04-07T06:16:33.414Z,99.90
2023-04-07T06:19:01.534Z,99.90
2023-04-07T06:21:30.839Z,99.90
2023-04-07T06:23:58.450Z,99.90
2023-04-07T06:26:27.300Z,99.90
2023-04-07T06:28:56.778Z,99.90
2023-04-07T06:31:26.334Z,99.90
2023-04-07T06:33:54.032Z,99.90
2023-04-07T06:36:21.955Z,99.90
2023-04-07T06:38:49.818Z,99.90
2023-04-07T06:41:17.430Z,99.90
2023-04-07T06:43:49.463Z,99.90
2023-04-07T06:46:18.018Z,99.90
2023-04-07T06:48:46.450Z,99.90
2023-04-07T06:51:14.023Z,99.50
2023-04-07T06:53:41.995Z,99.10
2023-04-07T06:56:11.611Z,99.90
2023-04-07T06:58:39.241Z,99.60
2023-04-07T07:01:07.169Z,99.30
2023-04-07T07:03:34.898Z,98.50
2023-04-07T07:06:02.579Z,98.10
2023-04-07T07:08:31.069Z,98.60
2023-04-07T07:10:59.045Z,99.40
2023-04-07T07:13:27.546Z,99.90
2023-04-07T07:15:55.891Z,97.50
2023-04-07T07:18:23.621Z,97.60
2023-04-07T07:20:51.312Z,97.60
2023-04-07T07:23:18.881Z,96.80
2023-04-07T07:25:46.953Z,96.00
2023-04-07T07:28:14.537Z,95.70
2023-04-07T07:30:42.424Z,97.70
2023-04-07T07:33:10.087Z,96.60
2023-04-07T07:35:38.109Z,96.00
2023-04-07T07:38:06.160Z,95.90
2023-04-07T07:40:34.253Z,95.10
2023-04-07T07:43:01.891Z,94.50
2023-04-07T07:45:29.500Z,95.40
2023-04-07T07:47:57.291Z,94.00
2023-04-07T07:50:24.977Z,93.00
2023-04-07T07:52:52.575Z,94.60
2023-04-07T07:55:20.758Z,93.90
2023-04-07T07:57:48.401Z,94.80
2023-04-07T08:00:16.156Z,93.90
2023-04-07T08:02:43.795Z,94.40
2023-04-07T08:05:11.781Z,94.80
2023-04-07T08:07:40.003Z,95.40
2023-04-07T08:10:08.491Z,95.20
2023-04-07T08:12:36.179Z,95.70
2023-04-07T08:15:04.158Z,95.40
2023-04-07T08:17:31.775Z,96.20
2023-04-07T08:19:59.424Z,95.80
2023-04-07T08:22:27.080Z,95.30
2023-04-07T08:24:54.760Z,96.40
2023-04-07T08:27:22.554Z,96.40
2023-04-07T08:30:04.429Z,95.80
2023-04-07T08:32:43.153Z,94.80
2023-04-07T08:35:11.541Z,96.10
2023-04-07T08:37:41.296Z,96.00
2023-04-07T08:40:09.551Z,97.60
2023-04-07T08:42:43.034Z,98.70
2023-04-07T08:45:11.050Z,99.50
2023-04-07T08:47:42.097Z,98.90
2023-04-07T08:50:11.908Z,99.80
2023-04-07T08:52:50.825Z,99.30
2023-04-07T08:55:18.981Z,99.40
2023-04-07T08:57:47.511Z,99.70
2023-04-07T09:00:16.209Z,99.50
2023-04-07T09:02:45.752Z,99.90
2023-04-07T09:05:17.180Z,99.90
2023-04-07T09:07:45.030Z,99.90
2023-04-07T09:10:12.746Z,99.90
2023-04-07T09:12:40.611Z,99.90
2023-04-07T09:15:09.020Z,99.90
2023-04-07T09:17:37.361Z,99.90
2023-04-07T09:20:05.805Z,99.10
2023-04-07T09:22:38.540Z,99.90
2023-04-07T09:25:15.240Z,99.90
2023-04-07T09:28:04.982Z,99.90
2023-04-07T09:30:33.932Z,99.90
2023-04-07T09:33:02.550Z,99.90
2023-04-07T09:35:30.766Z,99.90
2023-04-07T09:38:04.074Z,99.90
2023-04-07T09:40:32.485Z,99.90
2023-04-07T09:43:00.596Z,99.90
2023-04-07T09:48:00.250Z,99.90
2023-04-07T09:50:36.941Z,99.90
2023-04-07T09:53:05.065Z,99.90
2023-04-07T09:55:34.000Z,99.90
2023-04-07T09:58:02.270Z,99.90
2023-04-07T10:00:29.974Z,99.90
2023-04-07T10:02:58.352Z,99.90
2023-04-07T10:05:27.732Z,99.90
2023-04-07T10:07:56.648Z,99.90
2023-04-07T10:10:25.878Z,99.90
2023-04-07T10:12:55.909Z,99.90
2023-04-07T10:15:23.913Z,99.90
2023-04-07T10:17:53.325Z,99.90
2023-04-07T10:20:21.892Z,99.90
2023-04-07T10:22:51.626Z,99.90
2023-04-07T10:25:22.677Z,99.90
2023-04-07T10:27:55.298Z,99.90
2023-04-07T10:30:28.108Z,99.90
2023-04-07T10:32:56.388Z,99.90
2023-04-07T10:35:24.067Z,99.90
2023-04-07T10:38:16.828Z,99.90
2023-04-07T10:40:44.873Z,99.90
2023-04-07T10:43:12.664Z,99.90
2023-04-07T10:45:49.253Z,99.90
2023-04-07T10:48:18.393Z,99.90
2023-04-07T10:51:07.647Z,99.90
2023-04-07T10:53:35.419Z,99.90
2023-04-07T10:56:03.293Z,99.90
2023-04-07T10:58:34.350Z,99.90
2023-04-07T11:01:08.320Z,99.90
2023-04-07T11:03:37.616Z,99.90
2023-04-07T11:06:12.916Z,99.90
2023-04-07T11:08:48.711Z,99.90
2023-04-07T11:11:34.597Z,99.90
2023-04-07T11:14:02.646Z,99.20
2023-04-07T11:16:42.751Z,99.90
2023-04-07T11:19:11.355Z,99.90
2023-04-07T11:21:39.313Z,99.90
2023-04-07T11:24:07.138Z,99.90
2023-04-07T11:26:41.845Z,99.90
2023-04-07T11:29:12.382Z,99.90
2023-04-07T11:31:40.321Z,99.90
2023-04-07T11:34:09.203Z,99.90
2023-04-07T11:36:41.732Z,99.90
2023-04-07T11:39:22.378Z,99.90
2023-04-07T11:41:51.250Z,99.90
2023-04-07T11:44:19.130Z,99.90
2023-04-07T11:47:01.047Z,99.90
2023-04-07T11:49:29.261Z,99.90
2023-04-07T11:52:07.293Z,99.90
2023-04-07T11:54:42.687Z,99.90
2023-04-07T11:57:13.084Z,99.90
2023-04-07T11:59:42.187Z,99.90
2023-04-07T12:02:10.348Z,99.90
2023-04-07T12:04:41.162Z,99.90
2023-04-07T12:07:12.593Z,99.90
2023-04-07T12:09:40.395Z,99.90
2023-04-07T12:12:08.798Z,99.90
2023-04-07T12:14:37.299Z,99.90
2023-04-07T12:17:05.369Z,99.90
2023-04-07T12:19:36.010Z,99.90
2023-04-07T12:22:04.032Z,99.90
2023-04-07T12:24:32.719Z,99.90
2023-04-07T12:27:00.376Z,99.90
2023-04-07T12:29:28.183Z,99.90
2023-04-07T12:31:56.694Z,99.90
2023-04-07T12:34:24.606Z,99.90
2023-04-07T12:36:52.525Z,99.90
2023-04-07T12:39:20.193Z,99.90
2023-04-07T12:41:48.907Z,99.90
2023-04-07T12:44:16.821Z,99.90
2023-04-07T12:46:45.044Z,99.90
2023-04-07T12:49:12.651Z,99.90
2023-04-07T12:51:40.731Z,99.90
2023-04-07T12:54:08.456Z,99.90
2023-04-07T12:56:36.535Z,99.90
2023-04-07T12:59:04.512Z,99.90
2023-04-07T13:01:34.374Z,99.90
2023-04-07T13:04:02.308Z,99.90
2023-04-07T13:06:30.930Z,99.90
2023-04-07T13:08:58.785Z,99.90
2023-04-07T13:11:26.682Z,99.90
2023-04-07T13:13:56.508Z,99.90
2023-04-07T13:16:24.996Z,99.90
2023-04-07T13:18:53.284Z,99.90
2023-04-07T13:21:43.705Z,99.90
2023-04-07T13:24:09.601Z,99.90
2023-04-07T13:26:37.223Z,99.90
2023-04-07T13:29:05.040Z,99.90
2023-04-07T13:31:32.817Z,99.90
2023-04-07T13:34:00.538Z,99.90
2023-04-07T13:36:28.575Z,99.90
2023-04-07T13:38:57.082Z,99.90
2023-04-07T13:41:24.763Z,99.90
2023-04-07T13:43:52.493Z,99.90
2023-04-07T13:46:28.536Z,99.90
2023-04-07T13:48:57.118Z,99.90
2023-04-07T13:51:25.033Z,99.90
2023-04-07T13:53:52.718Z,99.90
2023-04-07T13:56:20.399Z,99.90
2023-04-07T13:58:48.104Z,99.90
2023-04-07T14:01:16.169Z,99.90
2023-04-07T14:03:44.219Z,99.90
2023-04-07T14:06:12.139Z,99.90
2023-04-07T14:08:39.908Z,99.90
2023-04-07T14:11:07.482Z,99.90
2023-04-07T14:13:35.308Z,99.90
2023-04-07T14:16:03.399Z,99.90
2023-04-07T14:18:31.574Z,99.90
2023-04-07T14:21:00.599Z,99.90
2023-04-07T14:23:36.719Z,99.90
2023-04-07T14:26:15.860Z,99.90
2023-04-07T14:28:43.545Z,99.90
2023-04-07T14:31:16.580Z,99.90
2023-04-07T14:33:44.940Z,99.90
2023-04-07T14:36:16.099Z,99.90
2023-04-07T14:38:44.703Z,99.90
2023-04-07T14:41:13.223Z,99.90
2023-04-07T14:43:41.959Z,99.90
2023-04-07T14:46:10.155Z,99.90
2023-04-07T14:48:38.180Z,99.90
2023-04-07T14:51:12.001Z,99.90
2023-04-07T14:53:42.148Z,99.90
2023-04-07T14:56:09.911Z,99.90
2023-04-07T14:58:39.143Z,99.90
2023-04-07T15:01:07.652Z,99.90
2023-04-07T15:03:36.054Z,99.90
2023-04-07T15:06:08.300Z,99.90
2023-04-07T15:08:36.803Z,99.90
2023-04-07T15:11:06.280Z,99.90
2023-04-07T15:13:34.686Z,99.90
2023-04-07T15:16:10.767Z,99.90
2023-04-07T15:18:41.186Z,99.90
2023-04-07T15:21:09.626Z,99.90
2023-04-07T15:23:38.506Z,99.90
2023-04-07T15:26:06.723Z,99.90
2023-04-07T15:28:34.557Z,99.90
2023-04-07T15:31:02.584Z,99.90
2023-04-07T15:33:30.408Z,99.90
2023-04-07T15:35:59.467Z,99.90
2023-04-07T15:38:29.379Z,99.90
2023-04-07T15:40:57.459Z,99.90
2023-04-07T15:43:26.128Z,99.90
2023-04-07T15:45:55.954Z,99.90
2023-04-07T15:48:24.155Z,99.90
2023-04-07T15:50:53.674Z,99.90
2023-04-07T15:53:21.666Z,99.90
2023-04-07T15:55:49.287Z,99.90
2023-04-07T15:58:17.176Z,99.90
2023-04-07T16:00:45.151Z,99.90
2023-04-07T16:03:12.960Z,99.90
2023-04-07T16:05:40.726Z,99.90
2023-04-07T16:08:08.402Z,99.90
2023-04-07T16:10:36.128Z,99.90
2023-04-07T16:13:03.692Z,99.90
2023-04-07T16:15:40.019Z,99.90
2023-04-07T16:18:10.091Z,99.90
2023-04-07T16:20:37.810Z,99.90
2023-04-07T16:23:05.753Z,99.90
2023-04-07T16:25:33.455Z,99.90
2023-04-07T16:28:01.053Z,99.90
2023-04-07T16:30:28.813Z,99.90
2023-04-07T16:32:56.805Z,99.90
2023-04-07T16:35:24.612Z,99.90
2023-04-07T16:37:54.823Z,99.90
2023-04-07T16:40:22.513Z,99.90
2023-04-07T16:42:50.121Z,99.90
2023-04-07T16:45:17.967Z,99.90
2023-04-07T16:47:45.686Z,99.90
2023-04-07T16:50:13.346Z,99.90
2023-04-07T16:52:40.878Z,99.90
2023-04-07T16:55:08.891Z,99.90
2023-04-07T16:57:36.498Z,99.90
2023-04-07T17:00:05.427Z,99.90
2023-04-07T17:02:33.403Z,99.90
2023-04-07T17:05:01.123Z,99.90
2023-04-07T17:07:28.747Z,99.90
2023-04-07T17:09:56.379Z,99.90
2023-04-07T17:12:24.063Z,99.90
2023-04-07T17:14:51.712Z,99.90
2023-04-07T17:17:19.509Z,99.90
2023-04-07T17:19:47.449Z,99.90
2023-04-07T17:22:15.231Z,99.90
2023-04-07T17:24:43.020Z,99.90
2023-04-07T17:27:10.945Z,99.90
2023-04-07T17:29:38.605Z,99.90
2023-04-07T17:32:06.759Z,99.90
2023-04-07T17:34:34.392Z,99.90
2023-04-07T17:37:02.031Z,99.90
2023-04-07T17:39:33.068Z,99.90
2023-04-07T17:42:00.885Z,99.90
2023-04-07T17:44:28.584Z,99.90
2023-04-07T17:46:56.477Z,99.90
2023-04-07T17:49:25.176Z,99.90
2023-04-07T17:51:52.824Z,99.90
2023-04-07T17:54:20.492Z,99.90
2023-04-07T17:56:48.112Z,99.90
2023-04-07T17:59:16.002Z,99.90
2023-04-07T18:01:44.114Z,99.90
2023-04-07T18:04:15.075Z,99.90
2023-04-07T18:06:42.868Z,99.90
2023-04-07T18:09:10.523Z,99.90
2023-04-07T18:11:38.690Z,99.90
2023-04-07T18:14:06.433Z,99.90
2023-04-07T18:16:34.521Z,99.90
2023-04-07T18:19:02.938Z,99.90
2023-04-07T18:21:31.330Z,99.90
2023-04-07T18:23:58.882Z,99.90
2023-04-07T18:26:26.731Z,99.90
2023-04-07T18:28:54.311Z,99.90
2023-04-07T18:31:22.010Z,99.90
2023-04-07T18:33:50.024Z,99.90
2023-04-07T18:36:19.014Z,99.90
2023-04-07T18:38:46.678Z,99.90
2023-04-07T18:41:14.349Z,99.90
2023-04-07T18:43:42.398Z,99.90
2023-04-07T18:46:10.317Z,99.90
2023-04-07T18:48:38.475Z,99.90
2023-04-07T18:51:06.797Z,99.90
2023-04-07T18:53:34.598Z,99.90
2023-04-07T18:56:02.578Z,99.90
2023-04-07T18:58:30.813Z,99.90
2023-04-07T19:00:58.652Z,99.90
2023-04-07T19:03:26.728Z,99.90
2023-04-07T19:05:55.433Z,99.90
2023-04-07T19:08:23.083Z,99.90
2023-04-07T19:10:51.144Z,99.90
2023-04-07T19:13:19.486Z,99.90
2023-04-07T19:15:47.829Z,99.90
2023-04-07T19:18:16.063Z,99.90
2023-04-07T19:20:44.377Z,99.90
2023-04-07T19:23:12.124Z,99.90
2023-04-07T19:25:40.455Z,99.90
2023-04-07T19:28:08.285Z,99.90
2023-04-07T19:30:36.132Z,99.90
2023-04-07T19:33:04.066Z,99.90
2023-04-07T19:35:33.712Z,99.90
2023-04-07T19:38:02.468Z,99.90
2023-04-07T19:40:31.627Z,99.90
2023-04-07T19:43:00.260Z,99.90
2023-04-07T19:45:28.584Z,99.90
2023-04-07T19:47:57.419Z,99.90
2023-04-07T19:50:25.715Z,99.90
2023-04-07T19:52:53.556Z,99.90
2023-04-07T19:55:21.283Z,99.90
2023-04-07T19:57:48.954Z,99.90
2023-04-07T20:00:16.820Z,99.90
2023-04-07T20:02:50.459Z,99.90
2023-04-07T20:05:19.746Z,99.90
2023-04-07T20:07:47.926Z,99.90
2023-04-07T20:10:15.720Z,99.90
2023-04-07T20:12:43.421Z,99.90
2023-04-07T20:15:11.798Z,99.90
2023-04-07T20:17:39.523Z,99.90
2023-04-07T20:20:07.635Z,99.90
2023-04-07T20:22:36.149Z,99.90
2023-04-07T20:25:05.487Z,99.90
2023-04-07T20:27:33.816Z,99.90
2023-04-07T20:30:02.698Z,99.90
2023-04-07T20:32:31.225Z,99.90
2023-04-07T20:34:59.193Z,99.90
2023-04-07T20:37:28.016Z,99.90
2023-04-07T20:39:55.752Z,99.90
2023-04-07T20:42:23.781Z,99.90
2023-04-07T20:44:55.807Z,99.90
2023-04-07T20:47:23.802Z,99.90
2023-04-07T20:49:53.342Z,99.90
2023-04-07T20:52:21.095Z,99.90
2023-04-07T20:54:48.859Z,99.90
2023-04-07T20:57:17.370Z,99.90
2023-04-07T20:59:44.949Z,99.90
2023-04-07T21:02:12.868Z,99.90
2023-04-07T21:04:40.684Z,99.90
2023-04-07T21:07:08.354Z,99.90
2023-04-07T21:09:36.038Z,99.90
2023-04-07T21:12:04.464Z,99.90
2023-04-07T21:14:33.651Z,99.90
2023-04-07T21:17:01.288Z,99.90
2023-04-07T21:19:28.905Z,99.90
2023-04-07T21:21:56.546Z,99.90
2023-04-07T21:24:24.173Z,99.90
2023-04-07T21:26:54.310Z,99.90
2023-04-07T21:29:22.610Z,99.90
2023-04-07T21:31:50.716Z,99.90
2023-04-07T21:34:18.413Z,99.90
2023-04-07T21:36:46.278Z,99.90
2023-04-07T21:39:13.915Z,99.90
2023-04-07T21:41:42.332Z,99.90
2023-04-07T21:44:10.774Z,99.90
2023-04-07T21:46:38.467Z,99.90
2023-04-07T21:49:06.325Z,99.90
2023-04-07T21:51:34.383Z,99.90
2023-04-07T21:54:02.096Z,99.90
2023-04-07T21:56:29.641Z,99.90
2023-04-07T21:58:57.395Z,99.90
2023-04-07T22:01:25.025Z,99.90
2023-04-07T22:03:52.783Z,99.90
2023-04-07T22:06:20.798Z,99.90
2023-04-07T22:09:00.684Z,99.90
2023-04-07T22:11:30.132Z,99.90
2023-04-07T22:13:57.906Z,99.90
2023-04-07T22:16:25.946Z,99.90
2023-04-07T22:18:53.491Z,99.90
2023-04-07T22:21:23.645Z,99.90
2023-04-07T22:23:51.241Z,99.90
2023-04-07T22:26:18.927Z,99.90
2023-04-07T22:28:46.639Z,99.90
2023-04-07T22:31:14.352Z,99.90
2023-04-07T22:33:42.128Z,99.90
2023-04-07T22:36:09.856Z,99.90
2023-04-07T22:38:37.753Z,99.90
2023-04-07T22:41:05.462Z,99.90
2023-04-07T22:43:34.146Z,99.90
2023-04-07T22:46:01.896Z,99.90
2023-04-07T22:48:29.565Z,99.90
2023-04-07T22:50:57.536Z,99.90
2023-04-07T22:53:25.905Z,99.90
2023-04-07T22:55:53.474Z,99.90
2023-04-07T22:58:21.098Z,99.90
2023-04-07T23:00:48.912Z,99.90
2023-04-07T23:03:16.741Z,99.90
2023-04-07T23:05:44.315Z,99.90
2023-04-07T23:08:11.932Z,99.90
2023-04-07T23:10:39.570Z,99.90
2023-04-07T23:13:07.181Z,99.90
2023-04-07T23:15:36.205Z,99.90
2023-04-07T23:18:04.029Z,99.90
2023-04-07T23:20:31.791Z,99.90
2023-04-07T23:22:59.467Z,99.90
2023-04-07T23:25:27.555Z,99.90
2023-04-07T23:27:55.781Z,99.90
2023-04-07T23:30:23.292Z,99.90
2023-04-07T23:32:51.146Z,99.90
2023-04-07T23:35:18.880Z,99.90
2023-04-07T23:37:46.522Z,99.90
2023-04-07T23:40:14.379Z,99.90
2023-04-07T23:42:44.932Z,99.90
2023-04-07T23:45:12.514Z,99.90
2023-04-07T23:47:40.216Z,99.90
2023-04-07T23:50:08.720Z,99.90
2023-04-07T23:52:36.316Z,99.90
2023-04-07T23:55:04.277Z,99.90
2023-04-07T23:57:32.040Z,99.90
2023-04-07T23:59:59.662Z,99.90
